Pleasantville, Ohio
Current Conditions -  °F | °C
As of 6:53 PM on Saturday 25 Oct 2014 (Local Time) from KLHQ Reporting Station
Clear Clear  
Wind Chill: 67°   Ceiling: Unl
Heat Index: 67°   Visibility: 10mi
Dew Point: 53°   Wind: 9mph
Humidity: 61%   Direction: 230°SW
Pressure: 29.85"   Gusts: NA
Location:  39.81°N, 82.52°W
Report Text: KLHQ 252253Z AUTO 23008KT 10SM CLR 19/12 A2985 RMK AO2 SLP106 T01940117
Loading
Personal Weather Stations






























Interactive Weather Map
Tropical Storm Tracking
New forecast layout! Learn more

10-Day Weather Forecast

Advertisements
Track Severe Weather on mobile